Houston, Texas
Current Conditions -  °F | °C
As of 4:15 PM on Thursday 18 Dec 2014 (Local Time) from KMCJ Reporting Station
Overcast Overcast  
Wind Chill: 70°   Ceiling: 1800
Heat Index: 70°   Visibility: NA
Dew Point: 63°   Wind: 3mph
Humidity: 78%   Direction: 30°NNE
Pressure: 29.99"   Gusts: NA
Location:  29.76°N, 95.37°W
Report Text: KMCJ 182215Z AUTO 03003KT BKN018 OVC025 21/17 A2999 RMK AO1
Loading
Personal Weather Stations






























Interactive Weather Map New forecast layout! Learn more

10-Day Weather Forecast

Advertisements
Track Severe Weather on mobile